Time;durP1;ratioP1;P1;durP2;ratioP2;P2;SDS_P1;SDS_P2;PMS_P1;PMS_P2;Temp;Humidity;BMP_temperature;BMP_pressure;BME280_temperature;BME280_humidity;BME280_pressure;Samples;Min_cycle;Max_cycle;Signal;HPM_P1;HPM_P2
2021/06/20 00:00:56;;;;;;;41.10;28.67;;;16.90;99.90;;;;;;4384552;32;20203;-62
2021/06/20 00:03:23;;;;;;;52.17;32.03;;;16.90;99.90;;;;;;4383463;32;20508;-61
2021/06/20 00:05:54;;;;;;;66.60;37.17;;;16.90;99.90;;;;;;4387519;32;20160;-61
2021/06/20 00:08:22;;;;;;;57.33;37.33;;;16.80;99.90;;;;;;4381736;32;20207;-61
2021/06/20 00:10:50;;;;;;;61.30;37.17;;;16.80;99.90;;;;;;4375400;32;20183;-64
2021/06/20 00:13:18;;;;;;;68.83;34.47;;;16.80;99.90;;;;;;4380106;32;20170;-65
2021/06/20 00:15:46;;;;;;;46.83;32.67;;;16.90;99.90;;;;;;4384507;32;20153;-63
2021/06/20 00:18:13;;;;;;;61.67;37.30;;;17.00;99.90;;;;;;4381895;32;20152;-64
2021/06/20 00:20:43;;;;;;;59.73;37.53;;;17.00;99.90;;;;;;4389062;32;20190;-61
2021/06/20 00:23:12;;;;;;;59.20;37.40;;;17.00;99.90;;;;;;4388807;32;20152;-62
2021/06/20 00:25:41;;;;;;;57.87;35.60;;;17.00;99.90;;;;;;4390413;32;20166;-61
2021/06/20 00:28:08;;;;;;;54.20;34.03;;;17.00;99.90;;;;;;4381919;32;20472;-60
2021/06/20 00:30:37;;;;;;;48.47;31.67;;;17.10;99.90;;;;;;4376118;32;20490;-63
2021/06/20 00:33:05;;;;;;;55.83;35.27;;;17.10;99.90;;;;;;4376745;32;20156;-63
2021/06/20 00:35:32;;;;;;;60.13;36.97;;;17.10;99.90;;;;;;4387823;32;20164;-63
2021/06/20 00:38:01;;;;;;;56.77;36.43;;;17.10;99.90;;;;;;4386117;32;20175;-60
2021/06/20 00:40:29;;;;;;;47.77;31.73;;;17.10;99.90;;;;;;4390015;32;20592;-61
2021/06/20 00:42:56;;;;;;;65.73;38.07;;;17.20;99.90;;;;;;4388555;32;20155;-63
2021/06/20 00:45:23;;;;;;;52.47;34.23;;;17.10;99.90;;;;;;4385447;32;20156;-62
2021/06/20 00:47:54;;;;;;;56.07;34.73;;;17.10;99.90;;;;;;4375806;32;20176;-61
2021/06/20 00:50:21;;;;;;;49.03;31.70;;;17.10;99.90;;;;;;4378201;32;20220;-62
2021/06/20 00:52:51;;;;;;;41.53;30.10;;;17.20;99.90;;;;;;4375657;32;20160;-64
2021/06/20 00:55:18;;;;;;;35.57;27.73;;;17.20;99.90;;;;;;4380147;32;20160;-62
2021/06/20 00:57:49;;;;;;;55.27;35.90;;;17.20;99.90;;;;;;4376718;32;20153;-64
2021/06/20 01:00:16;;;;;;;40.57;29.37;;;17.30;99.90;;;;;;4376369;32;20153;-63
2021/06/20 01:02:47;;;;;;;41.00;30.20;;;17.20;99.90;;;;;;4384788;32;20160;-64
2021/06/20 01:05:14;;;;;;;64.90;37.03;;;17.20;99.90;;;;;;4389159;32;20230;-65
2021/06/20 01:07:43;;;;;;;44.63;31.70;;;17.30;99.90;;;;;;4388385;32;20209;-61
2021/06/20 01:10:12;;;;;;;39.20;27.67;;;17.30;99.90;;;;;;4387779;32;20167;-60
2021/06/20 01:12:39;;;;;;;39.63;27.70;;;17.20;99.90;;;;;;4389270;32;20166;-60
2021/06/20 01:15:10;;;;;;;41.40;29.53;;;17.30;99.90;;;;;;4380944;32;20178;-62
2021/06/20 01:17:38;;;;;;;45.40;31.97;;;17.40;99.90;;;;;;4389352;32;20589;-61
2021/06/20 01:20:08;;;;;;;39.77;29.03;;;17.30;99.90;;;;;;4381524;32;20152;-61
2021/06/20 01:22:37;;;;;;;55.83;33.73;;;17.30;99.90;;;;;;4378259;32;20157;-61
2021/06/20 01:25:09;;;;;;;40.27;29.30;;;17.40;99.90;;;;;;4388519;32;20160;-60
2021/06/20 01:27:37;;;;;;;52.67;34.70;;;17.40;99.90;;;;;;4391875;32;20174;-63
2021/06/20 01:30:06;;;;;;;44.53;30.60;;;17.40;99.90;;;;;;4385511;32;20157;-63
2021/06/20 01:32:33;;;;;;;40.83;29.23;;;17.30;99.90;;;;;;4390742;32;20151;-60
2021/06/20 01:35:00;;;;;;;40.43;28.57;;;17.30;99.90;;;;;;4390586;32;20191;-59
2021/06/20 01:37:28;;;;;;;55.50;35.43;;;17.30;99.90;;;;;;4382378;32;20187;-60
2021/06/20 01:39:56;;;;;;;41.87;29.33;;;17.30;99.90;;;;;;4388752;32;20179;-62
2021/06/20 01:42:24;;;;;;;58.43;34.17;;;17.30;99.90;;;;;;4379545;32;20495;-62
2021/06/20 01:44:52;;;;;;;54.23;35.53;;;17.20;99.90;;;;;;4378565;32;20141;-61
2021/06/20 01:47:23;;;;;;;63.10;38.27;;;17.10;99.90;;;;;;4384703;32;20186;-61
2021/06/20 01:49:50;;;;;;;58.27;36.03;;;17.10;99.90;;;;;;4392559;32;20214;-61
2021/06/20 01:52:21;;;;;;;53.60;35.97;;;17.10;99.90;;;;;;4386102;32;20156;-60
2021/06/20 01:54:52;;;;;;;46.43;31.00;;;17.10;99.90;;;;;;4377328;32;20148;-60
2021/06/20 01:57:22;;;;;;;47.63;31.50;;;17.00;99.90;;;;;;4383453;32;20168;-60
2021/06/20 01:59:50;;;;;;;47.57;31.30;;;17.10;99.90;;;;;;4388792;32;20228;-60
2021/06/20 02:02:20;;;;;;;65.87;39.47;;;17.20;99.90;;;;;;4380218;32;20156;-60
2021/06/20 02:04:48;;;;;;;61.70;35.13;;;17.10;99.90;;;;;;4388846;32;20503;-60
2021/06/20 02:07:15;;;;;;;61.80;36.13;;;17.10;99.90;;;;;;4377585;32;20206;-61
2021/06/20 02:09:42;;;;;;;45.20;29.00;;;17.10;99.90;;;;;;4377980;32;20192;-62
2021/06/20 02:12:10;;;;;;;47.83;31.03;;;17.10;99.90;;;;;;4380055;32;20147;-63
2021/06/20 02:14:40;;;;;;;43.87;29.40;;;17.20;99.90;;;;;;4389086;32;20603;-62
2021/06/20 02:17:19;;;;;;;40.70;28.73;;;17.20;99.90;;;;;;4380691;32;20161;-60
2021/06/20 02:19:46;;;;;;;42.60;30.50;;;17.20;99.90;;;;;;4387359;32;20171;-61
2021/06/20 02:22:13;;;;;;;39.87;28.07;;;17.20;99.90;;;;;;4382794;32;20155;-60
2021/06/20 02:24:40;;;;;;;37.17;25.00;;;17.20;99.90;;;;;;4382496;32;20493;-61
2021/06/20 02:27:09;;;;;;;37.17;26.47;;;17.30;99.90;;;;;;4376819;32;20152;-60
2021/06/20 02:29:38;;;;;;;39.10;26.47;;;17.30;99.90;;;;;;4381626;32;20224;-61
2021/06/20 02:32:05;;;;;;;37.83;25.60;;;17.40;99.90;;;;;;4386568;32;20156;-60
2021/06/20 02:34:32;;;;;;;36.80;26.90;;;17.40;99.90;;;;;;4390007;32;20202;-60
2021/06/20 02:36:59;;;;;;;58.23;31.20;;;17.40;99.90;;;;;;4389177;32;20169;-63
2021/06/20 02:39:26;;;;;;;38.63;26.70;;;17.20;99.90;;;;;;4377967;32;20203;-60
2021/06/20 02:41:53;;;;;;;56.63;32.37;;;17.10;99.90;;;;;;4383637;32;20148;-60
2021/06/20 02:44:20;;;;;;;44.23;27.53;;;17.00;99.90;;;;;;4377216;32;20171;-60
2021/06/20 02:46:48;;;;;;;52.53;32.33;;;17.00;99.90;;;;;;4377371;32;20167;-60
2021/06/20 02:49:15;;;;;;;42.00;28.13;;;17.00;99.90;;;;;;4376963;32;20549;-63
2021/06/20 02:51:44;;;;;;;39.93;27.13;;;17.00;99.90;;;;;;4376427;32;20206;-63
2021/06/20 02:54:11;;;;;;;47.53;30.40;;;17.00;99.90;;;;;;4390812;32;20172;-65
2021/06/20 02:56:40;;;;;;;34.73;22.17;;;17.00;99.90;;;;;;4384200;32;20171;-62
2021/06/20 02:59:07;;;;;;;24.47;16.10;;;16.90;99.90;;;;;;4377990;32;20584;-61
2021/06/20 03:01:34;;;;;;;15.20;10.67;;;16.70;99.90;;;;;;4387681;32;20168;-61
2021/06/20 03:04:02;;;;;;;16.07;11.20;;;16.50;99.90;;;;;;4379529;32;20179;-61
2021/06/20 03:06:29;;;;;;;13.63;10.10;;;16.50;99.90;;;;;;4385272;32;20481;-61
2021/06/20 03:08:57;;;;;;;10.37;8.43;;;16.30;99.90;;;;;;4384305;32;20611;-62
2021/06/20 03:11:24;;;;;;;12.57;10.53;;;16.20;99.90;;;;;;4388437;32;20170;-64
2021/06/20 03:13:52;;;;;;;9.37;8.03;;;16.10;99.90;;;;;;4381699;32;20639;-62
2021/06/20 03:16:20;;;;;;;9.10;7.80;;;16.10;99.90;;;;;;4388769;32;20239;-61
2021/06/20 03:18:48;;;;;;;10.97;9.07;;;16.20;99.90;;;;;;4388465;32;20278;-62
2021/06/20 03:21:18;;;;;;;11.13;8.77;;;16.20;99.90;;;;;;4376021;32;20210;-60
2021/06/20 03:23:45;;;;;;;10.00;8.40;;;16.20;99.90;;;;;;4377297;32;20481;-62
2021/06/20 03:26:13;;;;;;;10.80;8.73;;;16.20;99.90;;;;;;4383028;32;20191;-61
2021/06/20 03:28:40;;;;;;;13.47;9.57;;;16.20;99.90;;;;;;4378115;32;20187;-61
2021/06/20 03:31:07;;;;;;;12.87;9.43;;;16.20;99.90;;;;;;4383171;32;20178;-61
2021/06/20 03:33:34;;;;;;;9.67;8.60;;;16.10;99.90;;;;;;4388057;32;20218;-61
2021/06/20 03:36:02;;;;;;;8.53;7.23;;;16.10;99.90;;;;;;4390408;32;20164;-61
2021/06/20 03:38:31;;;;;;;8.73;6.93;;;16.10;99.90;;;;;;4376344;32;20188;-63
2021/06/20 03:40:58;;;;;;;8.20;5.80;;;16.20;99.90;;;;;;4376725;32;20144;-64
2021/06/20 03:43:25;;;;;;;8.80;6.80;;;16.30;99.90;;;;;;4387886;32;20222;-60
2021/06/20 03:45:53;;;;;;;7.63;6.60;;;16.30;99.90;;;;;;4384182;32;20156;-63
2021/06/20 03:48:20;;;;;;;7.23;5.67;;;16.30;99.90;;;;;;4388889;32;20156;-63
2021/06/20 03:50:47;;;;;;;7.63;6.57;;;16.40;99.90;;;;;;4382760;32;20187;-61
2021/06/20 03:53:14;;;;;;;6.47;5.43;;;16.40;99.90;;;;;;4387405;32;20152;-61
2021/06/20 03:55:46;;;;;;;8.10;6.73;;;16.50;99.90;;;;;;4391588;32;20171;-63
2021/06/20 03:58:13;;;;;;;7.33;5.33;;;16.50;99.90;;;;;;4383058;32;20215;-61
2021/06/20 04:00:41;;;;;;;7.50;6.67;;;16.50;99.90;;;;;;4377659;32;20145;-62
2021/06/20 04:03:07;;;;;;;6.30;4.93;;;16.50;99.90;;;;;;4377710;32;20156;-63
2021/06/20 04:05:35;;;;;;;5.10;4.60;;;16.40;99.90;;;;;;4387250;32;20148;-61
2021/06/20 04:08:01;;;;;;;6.87;5.37;;;16.50;99.90;;;;;;4381410;32;20191;-58
2021/06/20 04:10:29;;;;;;;5.50;4.97;;;16.50;99.90;;;;;;4390580;32;20603;-59
2021/06/20 04:12:58;;;;;;;5.83;5.00;;;16.50;99.90;;;;;;4386862;32;20156;-64
2021/06/20 04:15:28;;;;;;;5.93;4.97;;;16.50;99.90;;;;;;4379673;32;20191;-61
2021/06/20 04:17:56;;;;;;;6.50;5.50;;;16.50;99.90;;;;;;4385185;32;20160;-59
2021/06/20 04:20:23;;;;;;;6.33;4.40;;;16.60;99.90;;;;;;4378235;32;20167;-60
2021/06/20 04:22:50;;;;;;;5.90;5.20;;;16.60;99.90;;;;;;4375358;32;20156;-63
2021/06/20 04:25:17;;;;;;;6.13;5.53;;;16.70;99.90;;;;;;4390012;32;20633;-60
2021/06/20 04:27:44;;;;;;;7.30;6.23;;;16.80;99.90;;;;;;4385662;32;20253;-62
2021/06/20 04:30:15;;;;;;;5.13;4.60;;;16.70;99.90;;;;;;4384117;32;20160;-61
2021/06/20 04:32:43;;;;;;;6.27;4.70;;;16.70;99.90;;;;;;4378815;32;20202;-61
2021/06/20 04:35:14;;;;;;;5.57;5.03;;;16.80;99.90;;;;;;4391798;32;20450;-61
2021/06/20 04:37:42;;;;;;;5.30;4.67;;;16.70;99.90;;;;;;4385134;32;20583;-60
2021/06/20 04:40:14;;;;;;;7.10;5.30;;;16.70;99.90;;;;;;4390449;32;20144;-61
2021/06/20 04:42:46;;;;;;;5.13;4.63;;;16.80;99.90;;;;;;4375739;32;20153;-62
2021/06/20 04:45:14;;;;;;;5.80;4.73;;;16.70;99.90;;;;;;4375799;32;20206;-59
2021/06/20 04:47:42;;;;;;;4.30;3.90;;;16.80;99.90;;;;;;4378294;32;20183;-59
2021/06/20 04:50:11;;;;;;;5.23;4.60;;;16.90;99.90;;;;;;4389526;32;20167;-62
2021/06/20 04:52:41;;;;;;;4.80;4.40;;;16.90;99.90;;;;;;4379738;32;20168;-59
2021/06/20 04:55:09;;;;;;;3.93;3.53;;;16.90;99.90;;;;;;4380006;32;20188;-58
2021/06/20 04:57:36;;;;;;;5.10;4.03;;;16.90;99.90;;;;;;4380044;32;20180;-59
2021/06/20 05:00:06;;;;;;;5.17;4.10;;;17.00;99.90;;;;;;4379701;32;20595;-60
2021/06/20 05:02:34;;;;;;;4.63;4.23;;;17.00;99.90;;;;;;4379677;32;20176;-60
2021/06/20 05:05:02;;;;;;;4.80;4.40;;;17.10;99.90;;;;;;4387930;32;20156;-63
2021/06/20 05:07:29;;;;;;;4.40;4.00;;;17.20;99.90;;;;;;4387086;32;20160;-63
2021/06/20 05:09:56;;;;;;;5.20;4.63;;;17.20;99.90;;;;;;4381789;32;20149;-61
2021/06/20 05:12:23;;;;;;;7.07;4.90;;;17.20;99.90;;;;;;4382625;32;20175;-60
2021/06/20 05:14:50;;;;;;;4.37;3.97;;;17.30;99.90;;;;;;4377744;32;20477;-60
2021/06/20 05:17:19;;;;;;;3.87;3.57;;;17.30;99.90;;;;;;4389604;32;20171;-60
2021/06/20 05:19:47;;;;;;;4.97;4.57;;;17.30;99.90;;;;;;4388200;32;20248;-61
2021/06/20 05:22:14;;;;;;;5.80;4.00;;;17.30;99.90;;;;;;4387184;32;20152;-60
2021/06/20 05:24:42;;;;;;;3.77;3.37;;;17.40;99.90;;;;;;4385061;32;20179;-60
2021/06/20 05:27:10;;;;;;;4.60;4.13;;;17.40;99.90;;;;;;4380020;32;20524;-60
2021/06/20 05:29:37;;;;;;;3.90;3.53;;;17.50;99.90;;;;;;4386076;32;20190;-60
2021/06/20 05:32:04;;;;;;;4.87;3.30;;;17.50;99.90;;;;;;4382408;32;20473;-60
2021/06/20 05:34:31;;;;;;;4.10;3.50;;;17.50;99.90;;;;;;4379188;32;20498;-63
2021/06/20 05:36:59;;;;;;;4.07;3.43;;;17.50;99.90;;;;;;4385197;32;20511;-63
2021/06/20 05:39:26;;;;;;;3.47;3.13;;;17.50;99.90;;;;;;4388499;32;20152;-61
2021/06/20 05:41:53;;;;;;;7.17;3.43;;;17.40;99.90;;;;;;4390917;32;20228;-63
2021/06/20 05:44:20;;;;;;;5.00;3.23;;;17.30;99.90;;;;;;4391762;32;20156;-60
2021/06/20 05:46:47;;;;;;;3.23;2.93;;;17.30;99.90;;;;;;4379361;32;20164;-60
2021/06/20 05:49:14;;;;;;;5.10;3.00;;;17.30;99.90;;;;;;4387319;32;20210;-61
2021/06/20 05:51:40;;;;;;;3.23;2.80;;;17.30;99.90;;;;;;4388009;32;20148;-61
2021/06/20 05:54:09;;;;;;;5.80;3.00;;;17.30;99.90;;;;;;4387049;32;20175;-60
2021/06/20 05:56:38;;;;;;;5.70;3.00;;;17.50;99.90;;;;;;4381297;32;20196;-60
2021/06/20 05:59:06;;;;;;;6.47;2.33;;;17.70;99.90;;;;;;4377660;32;20160;-60
2021/06/20 06:01:33;;;;;;;2.40;2.13;;;17.70;99.90;;;;;;4382090;32;20593;-61
2021/06/20 06:04:01;;;;;;;3.83;2.40;;;17.80;99.90;;;;;;4382000;32;20181;-61
2021/06/20 06:06:28;;;;;;;2.77;2.10;;;17.80;99.90;;;;;;4379072;32;20599;-60
2021/06/20 06:08:55;;;;;;;2.10;1.90;;;17.80;99.90;;;;;;4377656;32;20565;-61
2021/06/20 06:11:23;;;;;;;2.50;2.20;;;17.70;99.90;;;;;;4384180;32;20592;-60
2021/06/20 06:13:50;;;;;;;3.80;2.37;;;17.80;99.90;;;;;;4376680;32;20171;-61
2021/06/20 06:16:20;;;;;;;2.77;2.47;;;17.90;99.90;;;;;;4385113;32;20589;-60
2021/06/20 06:18:47;;;;;;;2.80;2.17;;;17.90;99.90;;;;;;4376898;32;20197;-63
2021/06/20 06:21:13;;;;;;;3.27;1.90;;;17.80;99.90;;;;;;4386863;32;20587;-61
2021/06/20 06:23:42;;;;;;;2.30;1.97;;;17.90;99.90;;;;;;4377656;32;20231;-62
2021/06/20 06:26:09;;;;;;;2.30;2.10;;;18.10;99.90;;;;;;4376786;32;20152;-60
2021/06/20 06:28:37;;;;;;;1.90;1.73;;;18.20;99.90;;;;;;4386965;32;20213;-60
2021/06/20 06:31:04;;;;;;;1.77;1.67;;;18.30;99.90;;;;;;4388212;32;20210;-62
2021/06/20 06:33:31;;;;;;;1.60;1.50;;;18.40;99.90;;;;;;4389549;32;20176;-61
2021/06/20 06:35:58;;;;;;;2.13;1.77;;;18.60;99.90;;;;;;4388629;32;20203;-61
2021/06/20 06:38:25;;;;;;;1.87;1.70;;;18.60;99.90;;;;;;4384019;32;20280;-63
2021/06/20 06:40:52;;;;;;;3.07;1.67;;;18.40;99.90;;;;;;4382358;32;20444;-63
2021/06/20 06:43:19;;;;;;;2.33;2.13;;;18.60;99.90;;;;;;4383527;32;20160;-60
2021/06/20 06:45:47;;;;;;;2.00;1.90;;;18.80;99.90;;;;;;4382285;32;20172;-61
2021/06/20 06:48:14;;;;;;;2.20;2.00;;;19.20;99.90;;;;;;4380390;32;20183;-60
2021/06/20 06:50:41;;;;;;;2.67;2.20;;;19.50;99.90;;;;;;4382933;32;20144;-63
2021/06/20 06:53:10;;;;;;;2.40;2.20;;;19.30;99.90;;;;;;4383446;32;20220;-61
2021/06/20 06:55:37;;;;;;;5.73;2.47;;;19.40;99.90;;;;;;4385331;32;20153;-61
2021/06/20 06:58:04;;;;;;;2.57;2.37;;;19.40;99.90;;;;;;4382674;32;20597;-62
2021/06/20 07:00:31;;;;;;;4.77;3.20;;;19.10;99.90;;;;;;4380425;32;20156;-61
2021/06/20 07:02:59;;;;;;;3.40;3.10;;;18.90;99.90;;;;;;4379022;32;20234;-61
2021/06/20 07:05:26;;;;;;;3.67;3.37;;;18.90;99.90;;;;;;4384707;32;20521;-61
2021/06/20 07:07:54;;;;;;;3.27;2.97;;;19.30;99.90;;;;;;4383136;32;20183;-63
2021/06/20 07:10:21;;;;;;;3.37;3.13;;;19.50;99.90;;;;;;4382076;32;20155;-63
2021/06/20 07:12:48;;;;;;;3.30;3.00;;;19.60;99.90;;;;;;4381465;32;20239;-60
2021/06/20 07:15:15;;;;;;;4.83;3.00;;;19.70;99.90;;;;;;4377273;32;20228;-60
2021/06/20 07:17:42;;;;;;;5.50;3.70;;;19.50;99.90;;;;;;4382931;32;20218;-63
2021/06/20 07:20:15;;;;;;;3.63;3.33;;;19.40;99.90;;;;;;4380319;32;20239;-60
2021/06/20 07:22:43;;;;;;;5.40;4.90;;;19.30;99.90;;;;;;4380860;32;20235;-65
2021/06/20 07:25:11;;;;;;;4.87;3.90;;;19.20;99.90;;;;;;4382963;32;20459;-62
2021/06/20 07:27:38;;;;;;;4.57;4.23;;;19.30;99.90;;;;;;4380828;32;20160;-59
2021/06/20 07:30:09;;;;;;;5.20;4.70;;;19.30;99.90;;;;;;4377921;32;20184;-59
2021/06/20 07:32:36;;;;;;;4.90;4.50;;;19.30;99.90;;;;;;4381207;32;20192;-62
2021/06/20 07:35:04;;;;;;;5.90;5.40;;;19.30;99.90;;;;;;4377828;32;20157;-61
2021/06/20 07:37:33;;;;;;;5.20;4.80;;;19.20;99.90;;;;;;4380552;32;20526;-60
2021/06/20 07:40:00;;;;;;;6.13;5.23;;;19.50;99.90;;;;;;4383860;32;20171;-60
2021/06/20 07:42:31;;;;;;;6.00;4.93;;;20.20;99.90;;;;;;4379286;32;20175;-59
2021/06/20 07:44:58;;;;;;;6.13;5.63;;;20.80;99.90;;;;;;4381796;32;20179;-60
2021/06/20 07:47:25;;;;;;;6.20;5.60;;;20.60;99.90;;;;;;4380189;32;20172;-60
2021/06/20 07:49:51;;;;;;;6.40;5.90;;;20.60;99.90;;;;;;4379412;32;20164;-62
2021/06/20 07:52:18;;;;;;;6.30;5.70;;;20.40;99.90;;;;;;4378269;32;20156;-60
2021/06/20 07:54:50;;;;;;;5.93;5.43;;;20.50;99.90;;;;;;4379413;32;20349;-60
2021/06/20 07:57:17;;;;;;;6.97;5.53;;;20.30;99.90;;;;;;4378461;32;20262;-63
2021/06/20 07:59:45;;;;;;;5.83;5.37;;;20.40;99.90;;;;;;4376418;32;20175;-61
2021/06/20 08:02:12;;;;;;;5.27;4.87;;;21.80;99.90;;;;;;4379184;32;20164;-63
2021/06/20 08:04:39;;;;;;;5.73;5.33;;;22.90;99.90;;;;;;4374836;32;20177;-60
2021/06/20 08:07:06;;;;;;;6.37;5.87;;;22.90;99.90;;;;;;4377245;32;20214;-63
2021/06/20 08:09:33;;;;;;;5.10;4.70;;;23.40;99.90;;;;;;4379430;32;20631;-60
2021/06/20 08:12:02;;;;;;;3.85;3.53;;;27.00;99.90;;;;;;4378607;32;20625;-60
2021/06/20 08:14:29;;;;;;;3.22;3.03;;;31.80;96.10;;;;;;4376912;32;20156;-63
2021/06/20 08:16:57;;;;;;;2.50;2.30;;;37.00;82.80;;;;;;4379992;32;20163;-58
2021/06/20 08:19:24;;;;;;;2.28;2.08;;;41.30;63.50;;;;;;4377740;32;20156;-59
2021/06/20 08:21:51;;;;;;;2.47;2.28;;;44.30;52.50;;;;;;4374421;32;20175;-62
2021/06/20 08:24:17;;;;;;;3.12;2.85;;;45.60;49.20;;;;;;4378782;32;20203;-60
2021/06/20 08:26:48;;;;;;;1.95;1.85;;;46.40;45.10;;;;;;4376803;32;20178;-65
2021/06/20 08:29:16;;;;;;;2.17;2.08;;;46.50;44.00;;;;;;4378057;32;20156;-64
2021/06/20 08:31:44;;;;;;;2.78;1.98;;;47.30;41.90;;;;;;4378989;32;20168;-61
2021/06/20 08:34:11;;;;;;;2.45;2.25;;;45.00;41.80;;;;;;4386635;32;20183;-62
2021/06/20 08:36:40;;;;;;;3.00;1.75;;;46.10;41.00;;;;;;4385034;32;20199;-60
2021/06/20 08:39:07;;;;;;;2.22;2.12;;;45.40;42.30;;;;;;4387932;32;20202;-62
2021/06/20 08:41:39;;;;;;;2.33;2.12;;;42.80;42.40;;;;;;4383958;32;20178;-61
2021/06/20 08:44:17;;;;;;;2.50;2.30;;;40.00;44.70;;;;;;4383232;32;20174;-62
2021/06/20 08:46:44;;;;;;;2.83;2.62;;;36.20;49.50;;;;;;4377342;32;20163;-62
2021/06/20 08:49:13;;;;;;;2.53;2.42;;;33.00;55.20;;;;;;4383007;32;20237;-60
2021/06/20 08:51:41;;;;;;;3.03;2.83;;;32.20;58.50;;;;;;4385671;32;20175;-60
2021/06/20 08:54:09;;;;;;;3.97;3.67;;;31.50;59.80;;;;;;4391980;32;20207;-60
2021/06/20 08:56:36;;;;;;;4.18;3.78;;;29.80;62.70;;;;;;4385838;32;20493;-63
2021/06/20 08:59:05;;;;;;;4.60;4.30;;;28.30;67.60;;;;;;4377959;32;20159;-63
2021/06/20 09:01:34;;;;;;;4.70;4.03;;;27.60;73.50;;;;;;4383062;32;20574;-61
2021/06/20 09:04:02;;;;;;;4.53;4.12;;;27.50;77.90;;;;;;4381553;32;20286;-61
2021/06/20 09:06:31;;;;;;;4.75;3.90;;;30.60;76.90;;;;;;4385821;32;20193;-62
2021/06/20 09:09:00;;;;;;;4.35;3.85;;;36.50;59.40;;;;;;4379934;32;20199;-61
2021/06/20 09:11:30;;;;;;;4.10;3.70;;;39.80;53.90;;;;;;4384541;32;20586;-62
2021/06/20 09:14:06;;;;;;;4.35;3.95;;;38.30;51.40;;;;;;4383324;32;20624;-60
2021/06/20 09:16:36;;;;;;;5.37;4.25;;;35.70;56.30;;;;;;4380739;32;20530;-59
2021/06/20 09:19:03;;;;;;;4.60;3.90;;;33.60;57.30;;;;;;4381615;32;20167;-61
2021/06/20 09:21:30;;;;;;;5.70;5.18;;;31.70;62.60;;;;;;4380529;32;20167;-60
2021/06/20 09:23:59;;;;;;;5.35;4.95;;;29.50;67.00;;;;;;4385606;32;20504;-61
2021/06/20 09:26:35;;;;;;;6.85;6.25;;;27.80;74.00;;;;;;4385394;32;20156;-61
2021/06/20 09:29:02;;;;;;;5.97;5.35;;;26.30;80.30;;;;;;4377219;32;20156;-61
2021/06/20 09:31:47;;;;;;;6.40;5.82;;;25.50;87.60;;;;;;4384774;32;20140;-61
2021/06/20 09:34:14;;;;;;;7.57;6.82;;;25.30;92.00;;;;;;4379996;32;20644;-63
2021/06/20 09:36:41;;;;;;;5.37;4.80;;;24.90;93.60;;;;;;4381471;32;20190;-63
2021/06/20 09:39:19;;;;;;;6.15;5.10;;;26.30;95.10;;;;;;4378379;32;20164;-63
2021/06/20 09:42:00;;;;;;;5.47;5.00;;;29.20;87.60;;;;;;4379689;32;20191;-64
2021/06/20 09:44:41;;;;;;;8.70;5.97;;;28.80;85.90;;;;;;4379647;32;20604;-63
2021/06/20 09:47:11;;;;;;;6.72;6.00;;;26.90;90.60;;;;;;4383774;32;20333;-61
2021/06/20 09:49:39;;;;;;;5.45;4.95;;;29.60;88.40;;;;;;4380697;32;20206;-63
2021/06/20 09:52:07;;;;;;;7.87;5.25;;;34.00;75.40;;;;;;4381674;32;20549;-62
2021/06/20 09:54:36;;;;;;;5.78;4.90;;;37.40;63.20;;;;;;4383247;32;20224;-63
2021/06/20 09:57:05;;;;;;;6.60;5.28;;;37.40;59.50;;;;;;4377802;32;20156;-62
2021/06/20 09:59:41;;;;;;;6.97;4.78;;;35.20;61.60;;;;;;4376404;32;20144;-62
2021/06/20 10:02:11;;;;;;;6.90;5.50;;;32.80;66.30;;;;;;4381071;32;20207;-62
2021/06/20 10:04:40;;;;;;;7.37;5.25;;;31.10;72.10;;;;;;4381599;32;20263;-60
2021/06/20 10:07:08;;;;;;;7.85;5.65;;;29.80;77.60;;;;;;4381735;32;20167;-61
2021/06/20 10:09:36;;;;;;;8.07;5.90;;;28.90;80.90;;;;;;4382586;32;20175;-61
2021/06/20 10:12:05;;;;;;;8.10;6.28;;;28.70;81.00;;;;;;4378823;32;20648;-63
2021/06/20 10:14:33;;;;;;;7.95;6.82;;;28.50;83.20;;;;;;4381597;32;20211;-62
2021/06/20 10:17:06;;;;;;;9.25;6.55;;;27.60;82.20;;;;;;4383161;32;20183;-61
2021/06/20 10:19:40;;;;;;;8.02;6.03;;;26.80;85.20;;;;;;4381134;32;20178;-65
2021/06/20 10:22:09;;;;;;;10.00;6.47;;;26.80;88.30;;;;;;4379387;32;20152;-61
2021/06/20 10:24:45;;;;;;;8.25;6.37;;;27.00;88.90;;;;;;4380654;32;20212;-60
2021/06/20 10:27:16;;;;;;;9.90;7.60;;;26.60;90.30;;;;;;4376640;32;20201;-63
2021/06/20 10:29:54;;;;;;;9.75;6.85;;;26.30;91.20;;;;;;4379443;32;20165;-61
2021/06/20 10:32:22;;;;;;;10.93;7.87;;;26.20;91.60;;;;;;4379497;32;20160;-60
2021/06/20 10:34:59;;;;;;;10.90;8.05;;;26.00;92.10;;;;;;4379000;32;20222;-62
2021/06/20 10:37:27;;;;;;;12.32;7.75;;;25.90;92.60;;;;;;4379122;32;20219;-63
2021/06/20 10:39:58;;;;;;;11.85;9.07;;;25.50;93.50;;;;;;4378353;32;20609;-62
2021/06/20 10:42:36;;;;;;;16.42;10.85;;;25.10;94.90;;;;;;4372701;32;20176;-61
2021/06/20 10:45:04;;;;;;;18.48;11.57;;;24.60;95.60;;;;;;4384999;32;20156;-64
2021/06/20 10:47:33;;;;;;;11.80;8.48;;;24.20;96.70;;;;;;4384392;32;20579;-62
2021/06/20 10:50:03;;;;;;;12.55;9.57;;;24.00;97.40;;;;;;4384096;32;20282;-62
2021/06/20 10:52:33;;;;;;;15.55;11.12;;;23.70;97.30;;;;;;4379890;32;20183;-63
2021/06/20 10:55:12;;;;;;;18.95;11.88;;;23.40;97.90;;;;;;4379554;32;20566;-63
2021/06/20 10:57:46;;;;;;;18.50;11.63;;;23.20;98.80;;;;;;4381141;32;20188;-63
2021/06/20 11:00:26;;;;;;;16.75;12.13;;;23.10;99.60;;;;;;4379600;32;20193;-62
2021/06/20 11:02:54;;;;;;;19.87;13.38;;;23.10;99.90;;;;;;4380835;32;20167;-61
2021/06/20 11:05:24;;;;;;;22.75;14.98;;;23.30;99.90;;;;;;4381829;32;20466;-62
2021/06/20 11:08:03;;;;;;;26.92;16.80;;;23.40;99.70;;;;;;4382336;32;20203;-61
2021/06/20 11:10:29;;;;;;;22.83;16.57;;;23.50;99.80;;;;;;4377763;32;20611;-64
2021/06/20 11:12:57;;;;;;;25.17;17.33;;;23.40;99.90;;;;;;4379846;32;20175;-63
2021/06/20 11:15:26;;;;;;;23.30;15.97;;;23.20;99.90;;;;;;4381239;32;20275;-64
2021/06/20 11:18:05;;;;;;;24.93;17.53;;;23.00;99.90;;;;;;4381612;32;20450;-61
2021/06/20 11:20:33;;;;;;;29.23;19.43;;;22.90;99.90;;;;;;4376305;32;20570;-63
2021/06/20 11:23:01;;;;;;;30.20;20.67;;;22.90;99.90;;;;;;4382798;32;20166;-61
2021/06/20 11:25:28;;;;;;;26.43;18.10;;;22.70;99.90;;;;;;4381471;32;20596;-62
2021/06/20 11:27:55;;;;;;;23.30;17.40;;;22.80;99.90;;;;;;4383823;32;20159;-62
2021/06/20 11:30:23;;;;;;;20.07;14.63;;;23.00;99.90;;;;;;4380277;32;20243;-64
2021/06/20 11:32:50;;;;;;;20.67;14.53;;;23.30;99.90;;;;;;4280964;32;3401348;-65
2021/06/20 11:35:18;;;;;;;20.77;14.02;;;23.50;99.60;;;;;;4398567;32;20144;-62
2021/06/20 11:37:49;;;;;;;18.57;14.00;;;23.60;99.70;;;;;;4396397;32;20272;-62
2021/06/20 11:40:19;;;;;;;22.00;14.13;;;23.80;99.90;;;;;;4396209;32;20167;-62
2021/06/20 11:42:47;;;;;;;17.35;12.90;;;24.40;99.40;;;;;;4396060;32;20159;-61
2021/06/20 11:45:16;;;;;;;17.62;11.57;;;24.60;97.60;;;;;;4396638;32;20218;-63
2021/06/20 11:47:44;;;;;;;15.98;10.55;;;24.60;97.00;;;;;;4394580;32;20564;-63
2021/06/20 11:50:17;;;;;;;17.52;11.52;;;25.00;97.80;;;;;;4395159;32;20163;-62
2021/06/20 11:52:47;;;;;;;9.25;5.45;;;25.80;96.60;;;;;;4398632;32;20352;-61
2021/06/20 11:55:17;;;;;;;9.68;4.90;;;25.80;94.80;;;;;;4396176;32;20520;-61
2021/06/20 11:57:43;;;;;;;5.55;4.20;;;26.40;95.70;;;;;;4397868;32;20234;-62
2021/06/20 12:00:19;;;;;;;4.97;4.05;;;26.60;94.10;;;;;;4395573;32;20164;-61
2021/06/20 12:02:57;;;;;;;5.57;3.00;;;26.00;95.10;;;;;;4402017;32;20166;-61
2021/06/20 12:05:25;;;;;;;4.43;3.15;;;25.20;95.70;;;;;;4400180;32;20182;-60
2021/06/20 12:07:53;;;;;;;4.37;2.30;;;25.50;96.50;;;;;;4406408;32;20211;-60
2021/06/20 12:10:20;;;;;;;3.72;2.92;;;26.20;96.40;;;;;;4399964;32;20549;-63
2021/06/20 12:12:58;;;;;;;2.75;2.15;;;26.70;95.70;;;;;;4404531;32;20227;-61
2021/06/20 12:15:25;;;;;;;4.37;2.50;;;27.00;95.20;;;;;;4408192;32;20182;-60
2021/06/20 12:17:52;;;;;;;4.65;2.97;;;26.90;94.20;;;;;;4396999;32;20167;-60
2021/06/20 12:20:28;;;;;;;4.32;3.28;;;25.90;94.50;;;;;;4397262;32;20282;-61
2021/06/20 12:22:57;;;;;;;4.62;2.70;;;26.30;94.90;;;;;;4396947;32;20588;-61
2021/06/20 12:25:24;;;;;;;5.15;3.60;;;26.40;94.80;;;;;;4402538;32;20250;-60
2021/06/20 12:27:51;;;;;;;5.32;3.20;;;25.40;94.80;;;;;;4403731;32;20152;-61
2021/06/20 12:30:20;;;;;;;3.53;3.17;;;25.10;95.40;;;;;;4408154;32;20233;-61
2021/06/20 12:32:49;;;;;;;7.57;3.58;;;25.20;96.40;;;;;;4398009;32;20476;-63
2021/06/20 12:35:21;;;;;;;4.75;2.15;;;25.40;95.00;;;;;;4398236;32;20662;-62
2021/06/20 12:37:49;;;;;;;4.03;2.87;;;25.60;95.70;;;;;;4402331;32;20183;-62
2021/06/20 12:40:19;;;;;;;6.68;3.55;;;25.90;95.30;;;;;;4405116;32;20584;-60
2021/06/20 12:43:36;;;;;;;4.20;3.47;;;26.30;94.60;;;;;;4402258;32;20161;-59
2021/06/20 12:46:05;;;;;;;4.00;3.47;;;26.20;93.70;;;;;;4268986;33;20160;-59
2021/06/20 12:48:35;;;;;;;4.78;3.50;;;26.50;93.40;;;;;;4271445;33;20409;-62